MOL Paramount — 3ECH9 — position and weather

sailwx.info

Track history (hours):
 
Tides and Currents Weather Stations Pressure Air Temp Water Temp Dewpoint Dewpoint Depression Visibility Wind Speed Wind Dir Waves Ship Positions

MOL Paramount

Last reported at 2015-Jul-05 04:06 UTC. Time now 2015-Jul-29 09:35 UTC.
Position S 32°46' W 072°00'.
Warning: this ship's position is 24 days out of date.

Length 293 m; draft 10.3 m.

Type: Cargo ship. MMSI: 371519000.

Date/timePositionNaut miles runAvg speedWind from/ knotsBaromVisibWave heightAir tempDewpointWater temp
2015-Jul-05 04:06S 32°46' W 072°00'  
2015-Jul-02 19:32S 33°08' W 071°50'1312.8
2015-Jul-02 18:33S 32°60' W 071°40'3 2.8
2015-Jul-02 17:32S 33°02' W 071°38'0 0.0
2015-Jul-02 16:29S 33°02' W 071°38'0 0.0
2015-Jul-02 15:32S 33°02' W 071°38'0 0.0
2015-Jul-02 14:29S 33°02' W 071°38'0 0.0
2015-Jul-02 13:32S 33°02' W 071°38'0 0.0
2015-Jul-02 12:32S 33°02' W 071°38'0 0.0
2015-Jul-02 11:29S 33°02' W 071°38'0 0.0
2015-Jul-02 10:11S 33°02' W 071°38'0 0.0
2015-Jul-02 09:29S 33°02' W 071°38'0 0.0
2015-Jul-02 08:32S 33°02' W 071°38'0 0.0
2015-Jul-02 07:32S 33°02' W 071°38'0 0.0
2015-Jul-02 04:14S 33°02' W 071°38'0 0.0
2015-Jul-02 03:20S 33°02' W 071°38'0 0.0
2015-Jul-02 02:26S 33°02' W 071°38'0 0.0
2015-Jul-01 22:29S 33°02' W 071°38'0 0.0
2015-Jul-01 21:32S 33°02' W 071°38'0 0.0
2015-Jul-01 20:32S 33°02' W 071°38'0 0.0
2015-Jul-01 19:32S 33°02' W 071°38'0 0.0
2015-Jul-01 18:32S 33°02' W 071°38'0 0.0
2015-Jul-01 17:32S 33°02' W 071°38'0 0.0
2015-Jul-01 16:29S 33°02' W 071°38'0 0.0
2015-Jul-01 15:32S 33°02' W 071°38'0 0.0
2015-Jul-01 14:32S 33°02' W 071°38'0 0.0
2015-Jul-01 13:32S 33°02' W 071°38'0 0.0
2015-Jul-01 12:32S 33°02' W 071°38'0 0.0
2015-Jul-01 09:32S 33°02' W 071°38'0 0.0
2015-Jul-01 08:29S 33°02' W 071°38'0 0.0
2015-Jul-01 06:17S 33°02' W 071°38'0 0.0
2015-Jul-01 05:26S 33°02' W 071°38'0 0.0
2015-Jul-01 04:29S 33°02' W 071°38'0 0.0
2015-Jul-01 01:05S 33°02' W 071°38'1 1.6
2015-Jul-01 00:25S 33°01' W 071°37'2 2.5
2015-Jun-30 23:32S 32°59' W 071°38'7 7.3
2015-Jun-30 22:33S 32°52' W 071°40'7 7.3
2015-Jun-30 21:33S 32°45' W 071°42'1312.6
2015-Jun-30 20:33S 32°33' W 071°45'  
Track history (hours):
 
Tides and Currents Weather Stations Pressure Air Temp Water Temp Dewpoint Dewpoint Depression Visibility Wind Speed Wind Dir Waves Ship Positions

MOL Paramount

Last reported at 2015-Jul-05 04:06 UTC. Time now 2015-Jul-29 09:35 UTC.
Position S 32°46' W 072°00'.
Warning: this ship's position is 24 days out of date.

Length 293 m; draft 10.3 m.

Type: Cargo ship. MMSI: 371519000.

Date/timePositionNaut miles runAvg speedWind from/ knotsBaromVisibWave heightAir tempDewpointWater temp
2015-Jul-05 04:06S 32°46' W 072°00'  
2015-Jul-02 19:32S 33°08' W 071°50'1312.8
2015-Jul-02 18:33S 32°60' W 071°40'3 2.8
2015-Jul-02 17:32S 33°02' W 071°38'0 0.0
2015-Jul-02 16:29S 33°02' W 071°38'0 0.0
2015-Jul-02 15:32S 33°02' W 071°38'0 0.0
2015-Jul-02 14:29S 33°02' W 071°38'0 0.0
2015-Jul-02 13:32S 33°02' W 071°38'0 0.0
2015-Jul-02 12:32S 33°02' W 071°38'0 0.0
2015-Jul-02 11:29S 33°02' W 071°38'0 0.0
2015-Jul-02 10:11S 33°02' W 071°38'0 0.0
2015-Jul-02 09:29S 33°02' W 071°38'0 0.0
2015-Jul-02 08:32S 33°02' W 071°38'0 0.0
2015-Jul-02 07:32S 33°02' W 071°38'0 0.0
2015-Jul-02 04:14S 33°02' W 071°38'0 0.0
2015-Jul-02 03:20S 33°02' W 071°38'0 0.0
2015-Jul-02 02:26S 33°02' W 071°38'0 0.0
2015-Jul-01 22:29S 33°02' W 071°38'0 0.0
2015-Jul-01 21:32S 33°02' W 071°38'0 0.0
2015-Jul-01 20:32S 33°02' W 071°38'0 0.0
2015-Jul-01 19:32S 33°02' W 071°38'0 0.0
2015-Jul-01 18:32S 33°02' W 071°38'0 0.0
2015-Jul-01 17:32S 33°02' W 071°38'0 0.0
2015-Jul-01 16:29S 33°02' W 071°38'0 0.0
2015-Jul-01 15:32S 33°02' W 071°38'0 0.0
2015-Jul-01 14:32S 33°02' W 071°38'0 0.0
2015-Jul-01 13:32S 33°02' W 071°38'0 0.0
2015-Jul-01 12:32S 33°02' W 071°38'0 0.0
2015-Jul-01 09:32S 33°02' W 071°38'0 0.0
2015-Jul-01 08:29S 33°02' W 071°38'0 0.0
2015-Jul-01 06:17S 33°02' W 071°38'0 0.0
2015-Jul-01 05:26S 33°02' W 071°38'0 0.0
2015-Jul-01 04:29S 33°02' W 071°38'0 0.0
2015-Jul-01 01:05S 33°02' W 071°38'1 1.6
2015-Jul-01 00:25S 33°01' W 071°37'2 2.5
2015-Jun-30 23:32S 32°59' W 071°38'7 7.3
2015-Jun-30 22:33S 32°52' W 071°40'7 7.3
2015-Jun-30 21:33S 32°45' W 071°42'1312.6
2015-Jun-30 20:33S 32°33' W 071°45'  

Dump ship's entire track history